sensor_id;sensor_type;location;lat;lon;timestamp;P1;durP1;ratioP1;P2;durP2;ratioP2
39322;SDS011;25036;53.638;10.134;2022-10-16T00:00:21;4.07;;;3.03;;
39322;SDS011;25036;53.638;10.134;2022-10-16T00:01:22;4.87;;;3.43;;
39322;SDS011;25036;53.638;10.134;2022-10-16T00:02:22;4.03;;;3.30;;
39322;SDS011;25036;53.638;10.134;2022-10-16T00:03:22;4.30;;;3.70;;
39322;SDS011;25036;53.638;10.134;2022-10-16T00:04:23;3.67;;;3.33;;
39322;SDS011;25036;53.638;10.134;2022-10-16T00:05:23;3.73;;;3.30;;
39322;SDS011;25036;53.638;10.134;2022-10-16T00:06:23;4.87;;;3.50;;
39322;SDS011;25036;53.638;10.134;2022-10-16T00:07:23;5.80;;;3.70;;
39322;SDS011;25036;53.638;10.134;2022-10-16T00:08:24;3.77;;;3.37;;
39322;SDS011;25036;53.638;10.134;2022-10-16T00:09:24;4.47;;;3.30;;
39322;SDS011;25036;53.638;10.134;2022-10-16T00:10:24;4.07;;;3.33;;
39322;SDS011;25036;53.638;10.134;2022-10-16T00:11:25;3.47;;;3.17;;
39322;SDS011;25036;53.638;10.134;2022-10-16T00:12:26;4.72;;;3.55;;
39322;SDS011;25036;53.638;10.134;2022-10-16T00:13:26;4.63;;;3.07;;
39322;SDS011;25036;53.638;10.134;2022-10-16T00:14:26;4.28;;;3.13;;
39322;SDS011;25036;53.638;10.134;2022-10-16T00:15:26;3.70;;;2.93;;
39322;SDS011;25036;53.638;10.134;2022-10-16T00:16:27;3.47;;;3.00;;
39322;SDS011;25036;53.638;10.134;2022-10-16T00:17:30;6.13;;;3.30;;
39322;SDS011;25036;53.638;10.134;2022-10-16T00:18:30;4.28;;;3.10;;
39322;SDS011;25036;53.638;10.134;2022-10-16T00:19:30;4.30;;;3.30;;
39322;SDS011;25036;53.638;10.134;2022-10-16T00:20:33;4.07;;;3.17;;
39322;SDS011;25036;53.638;10.134;2022-10-16T00:21:34;4.10;;;3.13;;
39322;SDS011;25036;53.638;10.134;2022-10-16T00:22:34;5.13;;;3.28;;
39322;SDS011;25036;53.638;10.134;2022-10-16T00:23:34;6.07;;;3.17;;
39322;SDS011;25036;53.638;10.134;2022-10-16T00:24:34;4.30;;;2.80;;
39322;SDS011;25036;53.638;10.134;2022-10-16T00:25:36;3.72;;;2.97;;
39322;SDS011;25036;53.638;10.134;2022-10-16T00:26:36;2.80;;;2.60;;
39322;SDS011;25036;53.638;10.134;2022-10-16T00:27:37;4.57;;;2.83;;
39322;SDS011;25036;53.638;10.134;2022-10-16T00:28:37;2.53;;;2.33;;
39322;SDS011;25036;53.638;10.134;2022-10-16T00:29:37;5.72;;;2.80;;
39322;SDS011;25036;53.638;10.134;2022-10-16T00:30:38;3.03;;;2.40;;
39322;SDS011;25036;53.638;10.134;2022-10-16T00:31:38;4.68;;;2.67;;
39322;SDS011;25036;53.638;10.134;2022-10-16T00:32:38;3.00;;;2.63;;
39322;SDS011;25036;53.638;10.134;2022-10-16T00:33:39;5.00;;;2.60;;
39322;SDS011;25036;53.638;10.134;2022-10-16T00:34:39;2.75;;;2.25;;
39322;SDS011;25036;53.638;10.134;2022-10-16T00:35:39;2.63;;;2.10;;
39322;SDS011;25036;53.638;10.134;2022-10-16T00:36:39;3.90;;;2.97;;
39322;SDS011;25036;53.638;10.134;2022-10-16T00:37:39;3.57;;;2.40;;
39322;SDS011;25036;53.638;10.134;2022-10-16T00:38:40;2.83;;;1.90;;
39322;SDS011;25036;53.638;10.134;2022-10-16T00:39:40;4.07;;;2.03;;
39322;SDS011;25036;53.638;10.134;2022-10-16T00:40:40;7.07;;;2.80;;
39322;SDS011;25036;53.638;10.134;2022-10-16T00:41:40;2.23;;;1.60;;
39322;SDS011;25036;53.638;10.134;2022-10-16T00:42:40;3.93;;;2.00;;
39322;SDS011;25036;53.638;10.134;2022-10-16T00:43:42;4.13;;;1.90;;
39322;SDS011;25036;53.638;10.134;2022-10-16T00:44:53;2.35;;;1.90;;
39322;SDS011;25036;53.638;10.134;2022-10-16T00:45:53;3.67;;;1.67;;
39322;SDS011;25036;53.638;10.134;2022-10-16T00:46:54;4.40;;;1.73;;
39322;SDS011;25036;53.638;10.134;2022-10-16T00:47:54;2.13;;;1.67;;
39322;SDS011;25036;53.638;10.134;2022-10-16T00:50:09;3.80;;;1.77;;
39322;SDS011;25036;53.638;10.134;2022-10-16T00:51:11;3.38;;;1.58;;
39322;SDS011;25036;53.638;10.134;2022-10-16T00:52:11;2.83;;;1.63;;
39322;SDS011;25036;53.638;10.134;2022-10-16T00:53:11;2.80;;;1.73;;
39322;SDS011;25036;53.638;10.134;2022-10-16T00:54:23;3.47;;;1.40;;
39322;SDS011;25036;53.638;10.134;2022-10-16T00:55:24;2.22;;;1.52;;
39322;SDS011;25036;53.638;10.134;2022-10-16T00:56:25;1.85;;;1.40;;
39322;SDS011;25036;53.638;10.134;2022-10-16T00:57:25;4.15;;;1.85;;
39322;SDS011;25036;53.638;10.134;2022-10-16T00:58:25;4.97;;;1.42;;
39322;SDS011;25036;53.638;10.134;2022-10-16T00:59:26;4.07;;;1.40;;
39322;SDS011;25036;53.638;10.134;2022-10-16T01:00:27;3.75;;;1.50;;
39322;SDS011;25036;53.638;10.134;2022-10-16T01:01:27;4.22;;;1.83;;
39322;SDS011;25036;53.638;10.134;2022-10-16T01:02:28;4.28;;;1.30;;
39322;SDS011;25036;53.638;10.134;2022-10-16T01:03:29;2.07;;;1.10;;
39322;SDS011;25036;53.638;10.134;2022-10-16T01:04:41;4.07;;;1.73;;
39322;SDS011;25036;53.638;10.134;2022-10-16T01:05:43;1.88;;;1.15;;
39322;SDS011;25036;53.638;10.134;2022-10-16T01:08:04;3.13;;;1.47;;
39322;SDS011;25036;53.638;10.134;2022-10-16T01:09:11;2.05;;;1.45;;
39322;SDS011;25036;53.638;10.134;2022-10-16T01:11:22;2.63;;;1.90;;
39322;SDS011;25036;53.638;10.134;2022-10-16T01:12:29;3.42;;;1.90;;
39322;SDS011;25036;53.638;10.134;2022-10-16T01:13:36;5.55;;;2.00;;
39322;SDS011;25036;53.638;10.134;2022-10-16T01:14:48;3.15;;;1.90;;
39322;SDS011;25036;53.638;10.134;2022-10-16T01:15:59;2.97;;;2.13;;
39322;SDS011;25036;53.638;10.134;2022-10-16T01:17:04;2.90;;;2.03;;
39322;SDS011;25036;53.638;10.134;2022-10-16T01:18:11;3.67;;;2.13;;
39322;SDS011;25036;53.638;10.134;2022-10-16T01:19:26;4.28;;;2.38;;
39322;SDS011;25036;53.638;10.134;2022-10-16T01:20:37;2.90;;;2.30;;
39322;SDS011;25036;53.638;10.134;2022-10-16T01:21:40;4.30;;;2.35;;
39322;SDS011;25036;53.638;10.134;2022-10-16T01:23:49;3.03;;;1.90;;
39322;SDS011;25036;53.638;10.134;2022-10-16T01:24:51;2.78;;;2.00;;
39322;SDS011;25036;53.638;10.134;2022-10-16T01:25:57;5.22;;;2.00;;
39322;SDS011;25036;53.638;10.134;2022-10-16T01:28:14;2.38;;;1.67;;
39322;SDS011;25036;53.638;10.134;2022-10-16T01:29:20;5.65;;;2.13;;
39322;SDS011;25036;53.638;10.134;2022-10-16T01:30:26;2.83;;;2.13;;
39322;SDS011;25036;53.638;10.134;2022-10-16T01:31:29;3.88;;;2.15;;
39322;SDS011;25036;53.638;10.134;2022-10-16T01:32:33;4.35;;;2.20;;
39322;SDS011;25036;53.638;10.134;2022-10-16T01:33:38;2.17;;;1.50;;
39322;SDS011;25036;53.638;10.134;2022-10-16T01:34:46;3.75;;;2.10;;
39322;SDS011;25036;53.638;10.134;2022-10-16T01:35:48;4.45;;;2.22;;
39322;SDS011;25036;53.638;10.134;2022-10-16T01:36:53;5.05;;;1.98;;
39322;SDS011;25036;53.638;10.134;2022-10-16T01:38:00;4.22;;;1.70;;
39322;SDS011;25036;53.638;10.134;2022-10-16T01:39:02;2.85;;;1.40;;
39322;SDS011;25036;53.638;10.134;2022-10-16T01:40:04;3.70;;;1.77;;
39322;SDS011;25036;53.638;10.134;2022-10-16T01:41:13;3.50;;;1.45;;
39322;SDS011;25036;53.638;10.134;2022-10-16T01:42:15;2.42;;;1.67;;
39322;SDS011;25036;53.638;10.134;2022-10-16T01:44:02;2.88;;;1.50;;
39322;SDS011;25036;53.638;10.134;2022-10-16T01:44:37;3.38;;;1.50;;
39322;SDS011;25036;53.638;10.134;2022-10-16T01:45:38;6.60;;;1.70;;
39322;SDS011;25036;53.638;10.134;2022-10-16T01:46:39;2.40;;;1.60;;
39322;SDS011;25036;53.638;10.134;2022-10-16T01:47:41;3.40;;;1.58;;
39322;SDS011;25036;53.638;10.134;2022-10-16T01:48:41;3.17;;;1.50;;
39322;SDS011;25036;53.638;10.134;2022-10-16T01:49:42;1.67;;;1.40;;
39322;SDS011;25036;53.638;10.134;2022-10-16T01:50:43;2.58;;;1.92;;
39322;SDS011;25036;53.638;10.134;2022-10-16T01:51:44;2.55;;;1.45;;
39322;SDS011;25036;53.638;10.134;2022-10-16T01:52:46;3.78;;;1.60;;
39322;SDS011;25036;53.638;10.134;2022-10-16T01:53:52;2.85;;;1.67;;
39322;SDS011;25036;53.638;10.134;2022-10-16T01:54:53;4.57;;;1.95;;
39322;SDS011;25036;53.638;10.134;2022-10-16T01:55:55;3.17;;;1.48;;
39322;SDS011;25036;53.638;10.134;2022-10-16T01:56:55;2.10;;;1.77;;
39322;SDS011;25036;53.638;10.134;2022-10-16T01:57:56;2.55;;;1.50;;
39322;SDS011;25036;53.638;10.134;2022-10-16T01:58:59;4.53;;;1.63;;
39322;SDS011;25036;53.638;10.134;2022-10-16T02:00:03;1.95;;;1.30;;
39322;SDS011;25036;53.638;10.134;2022-10-16T02:01:04;3.35;;;2.00;;
39322;SDS011;25036;53.638;10.134;2022-10-16T02:02:06;4.22;;;1.35;;
39322;SDS011;25036;53.638;10.134;2022-10-16T02:03:07;3.65;;;1.30;;
39322;SDS011;25036;53.638;10.134;2022-10-16T02:04:13;2.83;;;1.27;;
39322;SDS011;25036;53.638;10.134;2022-10-16T02:06:15;3.37;;;1.30;;
39322;SDS011;25036;53.638;10.134;2022-10-16T02:07:15;2.43;;;1.37;;
39322;SDS011;25036;53.638;10.134;2022-10-16T02:08:16;2.83;;;1.15;;
39322;SDS011;25036;53.638;10.134;2022-10-16T02:09:16;2.88;;;1.27;;
39322;SDS011;25036;53.638;10.134;2022-10-16T02:10:16;2.20;;;1.20;;
39322;SDS011;25036;53.638;10.134;2022-10-16T02:11:17;3.03;;;1.50;;
39322;SDS011;25036;53.638;10.134;2022-10-16T02:12:27;2.40;;;1.20;;
39322;SDS011;25036;53.638;10.134;2022-10-16T02:13:30;2.97;;;1.48;;
39322;SDS011;25036;53.638;10.134;2022-10-16T02:14:31;2.20;;;1.10;;
39322;SDS011;25036;53.638;10.134;2022-10-16T02:15:32;2.42;;;1.08;;
39322;SDS011;25036;53.638;10.134;2022-10-16T02:16:33;2.50;;;1.20;;
39322;SDS011;25036;53.638;10.134;2022-10-16T02:17:34;3.85;;;1.40;;
39322;SDS011;25036;53.638;10.134;2022-10-16T02:18:34;4.20;;;1.10;;
39322;SDS011;25036;53.638;10.134;2022-10-16T02:19:35;3.63;;;1.47;;
39322;SDS011;25036;53.638;10.134;2022-10-16T02:20:48;3.07;;;1.33;;
39322;SDS011;25036;53.638;10.134;2022-10-16T02:21:51;2.17;;;1.13;;
39322;SDS011;25036;53.638;10.134;2022-10-16T02:22:53;6.18;;;1.20;;
39322;SDS011;25036;53.638;10.134;2022-10-16T02:23:56;2.03;;;1.10;;
39322;SDS011;25036;53.638;10.134;2022-10-16T02:25:10;3.22;;;1.20;;
39322;SDS011;25036;53.638;10.134;2022-10-16T02:26:12;4.13;;;1.08;;
39322;SDS011;25036;53.638;10.134;2022-10-16T02:27:16;2.75;;;1.10;;
39322;SDS011;25036;53.638;10.134;2022-10-16T02:28:19;3.95;;;1.20;;
39322;SDS011;25036;53.638;10.134;2022-10-16T02:29:22;5.65;;;1.33;;
39322;SDS011;25036;53.638;10.134;2022-10-16T02:30:34;2.10;;;0.93;;
39322;SDS011;25036;53.638;10.134;2022-10-16T02:31:38;2.13;;;1.20;;
39322;SDS011;25036;53.638;10.134;2022-10-16T02:32:41;3.95;;;1.15;;
39322;SDS011;25036;53.638;10.134;2022-10-16T02:33:42;2.75;;;1.15;;
39322;SDS011;25036;53.638;10.134;2022-10-16T02:34:44;2.15;;;1.15;;
39322;SDS011;25036;53.638;10.134;2022-10-16T02:35:44;1.40;;;0.98;;
39322;SDS011;25036;53.638;10.134;2022-10-16T02:36:46;3.33;;;0.98;;
39322;SDS011;25036;53.638;10.134;2022-10-16T02:37:48;2.20;;;1.20;;
39322;SDS011;25036;53.638;10.134;2022-10-16T02:38:48;2.50;;;1.33;;
39322;SDS011;25036;53.638;10.134;2022-10-16T02:39:49;3.17;;;1.20;;
39322;SDS011;25036;53.638;10.134;2022-10-16T02:40:49;2.47;;;1.10;;
39322;SDS011;25036;53.638;10.134;2022-10-16T02:41:49;4.18;;;1.60;;
39322;SDS011;25036;53.638;10.134;2022-10-16T02:42:50;3.60;;;1.20;;
39322;SDS011;25036;53.638;10.134;2022-10-16T02:43:51;3.28;;;1.15;;
39322;SDS011;25036;53.638;10.134;2022-10-16T02:44:51;3.27;;;1.40;;
39322;SDS011;25036;53.638;10.134;2022-10-16T02:45:51;3.10;;;1.53;;
39322;SDS011;25036;53.638;10.134;2022-10-16T02:46:51;3.17;;;1.30;;
39322;SDS011;25036;53.638;10.134;2022-10-16T02:47:52;2.03;;;1.40;;
39322;SDS011;25036;53.638;10.134;2022-10-16T02:48:52;4.23;;;1.70;;
39322;SDS011;25036;53.638;10.134;2022-10-16T02:49:52;2.27;;;1.60;;
39322;SDS011;25036;53.638;10.134;2022-10-16T02:50:52;3.15;;;1.75;;
39322;SDS011;25036;53.638;10.134;2022-10-16T02:51:52;2.60;;;1.27;;
39322;SDS011;25036;53.638;10.134;2022-10-16T02:52:52;4.83;;;1.67;;
39322;SDS011;25036;53.638;10.134;2022-10-16T02:53:53;2.77;;;1.77;;
39322;SDS011;25036;53.638;10.134;2022-10-16T02:54:53;2.97;;;1.53;;
39322;SDS011;25036;53.638;10.134;2022-10-16T02:55:53;3.83;;;1.40;;
39322;SDS011;25036;53.638;10.134;2022-10-16T02:56:53;3.70;;;1.50;;
39322;SDS011;25036;53.638;10.134;2022-10-16T02:57:53;3.10;;;1.48;;
39322;SDS011;25036;53.638;10.134;2022-10-16T02:58:54;2.85;;;1.88;;
39322;SDS011;25036;53.638;10.134;2022-10-16T02:59:54;2.60;;;1.43;;
39322;SDS011;25036;53.638;10.134;2022-10-16T03:00:54;2.83;;;1.60;;
39322;SDS011;25036;53.638;10.134;2022-10-16T03:01:54;2.75;;;1.48;;
39322;SDS011;25036;53.638;10.134;2022-10-16T03:02:55;3.90;;;1.53;;
39322;SDS011;25036;53.638;10.134;2022-10-16T03:03:55;2.13;;;1.40;;
39322;SDS011;25036;53.638;10.134;2022-10-16T03:04:55;2.45;;;1.58;;
39322;SDS011;25036;53.638;10.134;2022-10-16T03:05:55;3.23;;;1.93;;
39322;SDS011;25036;53.638;10.134;2022-10-16T03:06:56;4.17;;;1.47;;
39322;SDS011;25036;53.638;10.134;2022-10-16T03:07:56;4.37;;;2.30;;
39322;SDS011;25036;53.638;10.134;2022-10-16T03:08:56;2.67;;;1.40;;
39322;SDS011;25036;53.638;10.134;2022-10-16T03:09:56;4.63;;;1.60;;
39322;SDS011;25036;53.638;10.134;2022-10-16T03:10:57;1.73;;;1.30;;
39322;SDS011;25036;53.638;10.134;2022-10-16T03:11:57;2.47;;;1.35;;
39322;SDS011;25036;53.638;10.134;2022-10-16T03:12:57;3.20;;;1.50;;
39322;SDS011;25036;53.638;10.134;2022-10-16T03:13:57;3.08;;;1.50;;
39322;SDS011;25036;53.638;10.134;2022-10-16T03:14:57;4.83;;;1.77;;
39322;SDS011;25036;53.638;10.134;2022-10-16T03:15:58;2.78;;;1.55;;
39322;SDS011;25036;53.638;10.134;2022-10-16T03:16:58;2.50;;;1.50;;
39322;SDS011;25036;53.638;10.134;2022-10-16T03:17:58;1.97;;;1.33;;
39322;SDS011;25036;53.638;10.134;2022-10-16T03:18:58;1.30;;;1.10;;
39322;SDS011;25036;53.638;10.134;2022-10-16T03:19:58;2.37;;;1.33;;
39322;SDS011;25036;53.638;10.134;2022-10-16T03:20:59;4.13;;;1.50;;
39322;SDS011;25036;53.638;10.134;2022-10-16T03:21:59;1.98;;;1.58;;
39322;SDS011;25036;53.638;10.134;2022-10-16T03:22:59;2.07;;;1.30;;
39322;SDS011;25036;53.638;10.134;2022-10-16T03:23:59;3.50;;;1.30;;
39322;SDS011;25036;53.638;10.134;2022-10-16T03:24:59;2.75;;;1.58;;
39322;SDS011;25036;53.638;10.134;2022-10-16T03:25:59;4.65;;;1.77;;
39322;SDS011;25036;53.638;10.134;2022-10-16T03:27:00;2.63;;;1.30;;
39322;SDS011;25036;53.638;10.134;2022-10-16T03:28:00;4.07;;;1.20;;
39322;SDS011;25036;53.638;10.134;2022-10-16T03:29:00;3.28;;;1.30;;
39322;SDS011;25036;53.638;10.134;2022-10-16T03:30:02;3.03;;;1.40;;
39322;SDS011;25036;53.638;10.134;2022-10-16T03:31:03;2.53;;;1.23;;
39322;SDS011;25036;53.638;10.134;2022-10-16T03:32:03;3.20;;;1.50;;
39322;SDS011;25036;53.638;10.134;2022-10-16T03:33:03;3.22;;;1.45;;
39322;SDS011;25036;53.638;10.134;2022-10-16T03:34:03;4.00;;;1.50;;
39322;SDS011;25036;53.638;10.134;2022-10-16T03:35:03;2.83;;;1.40;;
39322;SDS011;25036;53.638;10.134;2022-10-16T03:36:03;1.65;;;1.10;;
39322;SDS011;25036;53.638;10.134;2022-10-16T03:37:04;2.58;;;1.30;;
39322;SDS011;25036;53.638;10.134;2022-10-16T03:38:04;3.13;;;1.30;;
39322;SDS011;25036;53.638;10.134;2022-10-16T03:39:04;2.90;;;1.40;;
39322;SDS011;25036;53.638;10.134;2022-10-16T03:40:04;4.20;;;1.37;;
39322;SDS011;25036;53.638;10.134;2022-10-16T03:41:04;2.97;;;1.40;;
39322;SDS011;25036;53.638;10.134;2022-10-16T03:42:05;1.27;;;1.02;;
39322;SDS011;25036;53.638;10.134;2022-10-16T03:43:05;2.70;;;1.35;;
39322;SDS011;25036;53.638;10.134;2022-10-16T03:44:06;2.22;;;1.10;;
39322;SDS011;25036;53.638;10.134;2022-10-16T03:45:06;3.17;;;1.17;;
39322;SDS011;25036;53.638;10.134;2022-10-16T03:46:06;2.03;;;1.05;;
39322;SDS011;25036;53.638;10.134;2022-10-16T03:47:07;2.72;;;1.10;;
39322;SDS011;25036;53.638;10.134;2022-10-16T03:48:07;4.40;;;1.13;;
39322;SDS011;25036;53.638;10.134;2022-10-16T03:49:07;3.70;;;0.97;;
39322;SDS011;25036;53.638;10.134;2022-10-16T03:50:07;3.78;;;1.10;;
39322;SDS011;25036;53.638;10.134;2022-10-16T03:51:08;4.10;;;1.40;;
39322;SDS011;25036;53.638;10.134;2022-10-16T03:52:08;1.70;;;1.03;;
39322;SDS011;25036;53.638;10.134;2022-10-16T03:53:08;4.50;;;1.15;;
39322;SDS011;25036;53.638;10.134;2022-10-16T03:54:09;1.33;;;0.80;;
39322;SDS011;25036;53.638;10.134;2022-10-16T03:55:09;3.45;;;1.13;;
39322;SDS011;25036;53.638;10.134;2022-10-16T03:56:09;2.77;;;1.10;;
39322;SDS011;25036;53.638;10.134;2022-10-16T03:57:09;7.73;;;1.53;;
39322;SDS011;25036;53.638;10.134;2022-10-16T03:58:10;3.97;;;1.23;;
39322;SDS011;25036;53.638;10.134;2022-10-16T03:59:10;2.83;;;1.30;;
39322;SDS011;25036;53.638;10.134;2022-10-16T04:00:11;2.93;;;0.90;;
39322;SDS011;25036;53.638;10.134;2022-10-16T04:01:11;2.80;;;0.95;;
39322;SDS011;25036;53.638;10.134;2022-10-16T04:02:11;1.30;;;0.80;;
39322;SDS011;25036;53.638;10.134;2022-10-16T04:03:11;1.47;;;0.80;;
39322;SDS011;25036;53.638;10.134;2022-10-16T04:04:11;2.20;;;1.13;;
39322;SDS011;25036;53.638;10.134;2022-10-16T04:05:11;3.93;;;1.33;;
39322;SDS011;25036;53.638;10.134;2022-10-16T04:06:12;2.88;;;1.08;;
39322;SDS011;25036;53.638;10.134;2022-10-16T04:07:12;2.20;;;1.07;;
39322;SDS011;25036;53.638;10.134;2022-10-16T04:08:12;3.20;;;0.87;;
39322;SDS011;25036;53.638;10.134;2022-10-16T04:09:12;2.70;;;0.87;;
39322;SDS011;25036;53.638;10.134;2022-10-16T04:10:12;1.77;;;1.10;;
39322;SDS011;25036;53.638;10.134;2022-10-16T04:11:12;2.50;;;1.00;;
39322;SDS011;25036;53.638;10.134;2022-10-16T04:12:12;2.47;;;1.23;;
39322;SDS011;25036;53.638;10.134;2022-10-16T04:13:13;2.43;;;0.90;;
39322;SDS011;25036;53.638;10.134;2022-10-16T04:14:13;3.93;;;1.20;;
39322;SDS011;25036;53.638;10.134;2022-10-16T04:15:13;2.03;;;1.07;;
39322;SDS011;25036;53.638;10.134;2022-10-16T04:16:13;4.80;;;1.13;;
39322;SDS011;25036;53.638;10.134;2022-10-16T04:17:13;1.85;;;0.90;;
39322;SDS011;25036;53.638;10.134;2022-10-16T04:18:14;3.93;;;1.10;;
39322;SDS011;25036;53.638;10.134;2022-10-16T04:19:14;2.20;;;0.93;;
39322;SDS011;25036;53.638;10.134;2022-10-16T04:20:14;3.33;;;1.07;;
39322;SDS011;25036;53.638;10.134;2022-10-16T04:21:14;2.33;;;1.00;;
39322;SDS011;25036;53.638;10.134;2022-10-16T04:22:14;3.70;;;1.00;;
39322;SDS011;25036;53.638;10.134;2022-10-16T04:23:14;3.97;;;1.10;;
39322;SDS011;25036;53.638;10.134;2022-10-16T04:24:14;2.80;;;0.90;;
39322;SDS011;25036;53.638;10.134;2022-10-16T04:25:15;2.83;;;1.13;;
39322;SDS011;25036;53.638;10.134;2022-10-16T04:26:15;2.78;;;0.98;;
39322;SDS011;25036;53.638;10.134;2022-10-16T04:27:15;3.40;;;1.17;;
39322;SDS011;25036;53.638;10.134;2022-10-16T04:28:15;3.60;;;1.00;;
39322;SDS011;25036;53.638;10.134;2022-10-16T04:29:15;3.97;;;1.50;;
39322;SDS011;25036;53.638;10.134;2022-10-16T04:30:15;4.37;;;1.30;;
39322;SDS011;25036;53.638;10.134;2022-10-16T04:31:16;3.97;;;1.00;;
39322;SDS011;25036;53.638;10.134;2022-10-16T04:32:16;3.27;;;1.00;;
39322;SDS011;25036;53.638;10.134;2022-10-16T04:33:16;3.37;;;1.00;;
39322;SDS011;25036;53.638;10.134;2022-10-16T04:34:16;1.93;;;1.00;;
39322;SDS011;25036;53.638;10.134;2022-10-16T04:35:17;1.97;;;1.30;;
39322;SDS011;25036;53.638;10.134;2022-10-16T04:36:17;3.47;;;1.20;;
39322;SDS011;25036;53.638;10.134;2022-10-16T04:37:17;2.47;;;1.03;;
39322;SDS011;25036;53.638;10.134;2022-10-16T04:38:17;3.20;;;1.40;;
39322;SDS011;25036;53.638;10.134;2022-10-16T04:39:18;3.78;;;1.00;;
39322;SDS011;25036;53.638;10.134;2022-10-16T04:40:18;1.35;;;0.82;;
39322;SDS011;25036;53.638;10.134;2022-10-16T04:41:18;2.10;;;0.97;;
39322;SDS011;25036;53.638;10.134;2022-10-16T04:42:19;3.70;;;1.10;;
39322;SDS011;25036;53.638;10.134;2022-10-16T04:43:19;1.95;;;1.20;;
39322;SDS011;25036;53.638;10.134;2022-10-16T04:44:19;2.05;;;0.93;;
39322;SDS011;25036;53.638;10.134;2022-10-16T04:45:19;4.10;;;1.20;;
39322;SDS011;25036;53.638;10.134;2022-10-16T04:46:19;4.33;;;1.00;;
39322;SDS011;25036;53.638;10.134;2022-10-16T04:47:20;2.30;;;0.80;;
39322;SDS011;25036;53.638;10.134;2022-10-16T04:48:20;1.90;;;0.90;;
39322;SDS011;25036;53.638;10.134;2022-10-16T04:49:20;2.97;;;1.00;;
39322;SDS011;25036;53.638;10.134;2022-10-16T04:50:20;2.33;;;0.80;;
39322;SDS011;25036;53.638;10.134;2022-10-16T04:51:20;2.20;;;0.73;;
39322;SDS011;25036;53.638;10.134;2022-10-16T04:52:20;4.72;;;1.30;;
39322;SDS011;25036;53.638;10.134;2022-10-16T04:53:21;1.70;;;1.10;;
39322;SDS011;25036;53.638;10.134;2022-10-16T04:54:21;5.47;;;1.10;;
39322;SDS011;25036;53.638;10.134;2022-10-16T04:55:21;2.03;;;1.23;;
39322;SDS011;25036;53.638;10.134;2022-10-16T04:56:22;4.65;;;1.40;;
39322;SDS011;25036;53.638;10.134;2022-10-16T04:57:22;2.85;;;1.20;;
39322;SDS011;25036;53.638;10.134;2022-10-16T04:58:22;3.13;;;0.80;;
39322;SDS011;25036;53.638;10.134;2022-10-16T04:59:23;1.27;;;0.82;;
39322;SDS011;25036;53.638;10.134;2022-10-16T05:00:23;2.92;;;0.98;;
39322;SDS011;25036;53.638;10.134;2022-10-16T05:01:23;1.77;;;0.90;;
39322;SDS011;25036;53.638;10.134;2022-10-16T05:02:23;1.40;;;0.80;;
39322;SDS011;25036;53.638;10.134;2022-10-16T05:03:24;1.92;;;1.23;;
39322;SDS011;25036;53.638;10.134;2022-10-16T05:04:24;3.88;;;1.10;;
39322;SDS011;25036;53.638;10.134;2022-10-16T05:05:24;3.00;;;1.20;;
39322;SDS011;25036;53.638;10.134;2022-10-16T05:06:24;2.45;;;0.75;;
39322;SDS011;25036;53.638;10.134;2022-10-16T05:07:24;3.40;;;1.13;;
39322;SDS011;25036;53.638;10.134;2022-10-16T05:08:25;2.93;;;1.13;;
39322;SDS011;25036;53.638;10.134;2022-10-16T05:09:25;4.10;;;1.00;;
39322;SDS011;25036;53.638;10.134;2022-10-16T05:10:25;2.27;;;1.00;;
39322;SDS011;25036;53.638;10.134;2022-10-16T05:11:25;4.20;;;1.20;;
39322;SDS011;25036;53.638;10.134;2022-10-16T05:12:25;4.45;;;1.50;;
39322;SDS011;25036;53.638;10.134;2022-10-16T05:13:25;3.23;;;1.13;;
39322;SDS011;25036;53.638;10.134;2022-10-16T05:14:25;2.27;;;0.80;;
39322;SDS011;25036;53.638;10.134;2022-10-16T05:15:25;3.27;;;0.80;;
39322;SDS011;25036;53.638;10.134;2022-10-16T05:16:26;5.97;;;1.23;;
39322;SDS011;25036;53.638;10.134;2022-10-16T05:17:26;3.37;;;1.10;;
39322;SDS011;25036;53.638;10.134;2022-10-16T05:18:26;2.92;;;1.05;;
39322;SDS011;25036;53.638;10.134;2022-10-16T05:19:26;2.60;;;1.10;;
39322;SDS011;25036;53.638;10.134;2022-10-16T05:20:26;2.40;;;1.00;;
39322;SDS011;25036;53.638;10.134;2022-10-16T05:21:26;1.90;;;1.00;;
39322;SDS011;25036;53.638;10.134;2022-10-16T05:22:27;2.67;;;1.13;;
39322;SDS011;25036;53.638;10.134;2022-10-16T05:23:27;4.67;;;1.20;;
39322;SDS011;25036;53.638;10.134;2022-10-16T05:24:27;2.97;;;0.90;;
39322;SDS011;25036;53.638;10.134;2022-10-16T05:25:27;3.15;;;1.10;;
39322;SDS011;25036;53.638;10.134;2022-10-16T05:26:27;1.63;;;1.10;;
39322;SDS011;25036;53.638;10.134;2022-10-16T05:27:27;3.63;;;1.33;;
39322;SDS011;25036;53.638;10.134;2022-10-16T05:28:28;1.67;;;0.90;;
39322;SDS011;25036;53.638;10.134;2022-10-16T05:29:29;1.70;;;0.98;;
39322;SDS011;25036;53.638;10.134;2022-10-16T05:30:29;3.65;;;1.15;;
39322;SDS011;25036;53.638;10.134;2022-10-16T05:31:29;1.13;;;0.70;;
39322;SDS011;25036;53.638;10.134;2022-10-16T05:32:29;4.07;;;1.10;;
39322;SDS011;25036;53.638;10.134;2022-10-16T05:33:29;3.03;;;1.20;;
39322;SDS011;25036;53.638;10.134;2022-10-16T05:34:30;3.20;;;1.03;;
39322;SDS011;25036;53.638;10.134;2022-10-16T05:35:30;2.60;;;1.03;;
39322;SDS011;25036;53.638;10.134;2022-10-16T05:36:30;2.65;;;0.90;;
39322;SDS011;25036;53.638;10.134;2022-10-16T05:37:30;4.73;;;1.17;;
39322;SDS011;25036;53.638;10.134;2022-10-16T05:38:30;2.05;;;1.20;;
39322;SDS011;25036;53.638;10.134;2022-10-16T05:39:30;4.20;;;1.20;;
39322;SDS011;25036;53.638;10.134;2022-10-16T05:40:31;5.82;;;1.33;;
39322;SDS011;25036;53.638;10.134;2022-10-16T05:41:31;1.83;;;1.00;;
39322;SDS011;25036;53.638;10.134;2022-10-16T05:42:31;3.25;;;1.20;;
39322;SDS011;25036;53.638;10.134;2022-10-16T05:43:31;3.37;;;1.03;;
39322;SDS011;25036;53.638;10.134;2022-10-16T05:44:32;3.07;;;1.20;;
39322;SDS011;25036;53.638;10.134;2022-10-16T05:45:32;2.88;;;1.00;;
39322;SDS011;25036;53.638;10.134;2022-10-16T05:46:32;5.70;;;1.30;;
39322;SDS011;25036;53.638;10.134;2022-10-16T05:47:32;2.15;;;1.08;;
39322;SDS011;25036;53.638;10.134;2022-10-16T05:48:33;4.93;;;1.40;;
39322;SDS011;25036;53.638;10.134;2022-10-16T05:49:33;3.30;;;1.15;;
39322;SDS011;25036;53.638;10.134;2022-10-16T05:50:33;2.40;;;1.00;;
39322;SDS011;25036;53.638;10.134;2022-10-16T05:51:33;3.13;;;1.10;;
39322;SDS011;25036;53.638;10.134;2022-10-16T05:52:33;2.90;;;1.40;;
39322;SDS011;25036;53.638;10.134;2022-10-16T05:53:34;1.73;;;1.17;;
39322;SDS011;25036;53.638;10.134;2022-10-16T05:54:35;2.88;;;1.25;;
39322;SDS011;25036;53.638;10.134;2022-10-16T05:55:35;2.70;;;1.10;;
39322;SDS011;25036;53.638;10.134;2022-10-16T05:56:35;2.50;;;0.93;;
39322;SDS011;25036;53.638;10.134;2022-10-16T05:57:35;1.70;;;0.90;;
39322;SDS011;25036;53.638;10.134;2022-10-16T05:58:36;5.13;;;1.43;;
39322;SDS011;25036;53.638;10.134;2022-10-16T05:59:36;2.70;;;1.30;;
39322;SDS011;25036;53.638;10.134;2022-10-16T06:00:36;2.22;;;1.40;;
39322;SDS011;25036;53.638;10.134;2022-10-16T06:01:36;4.03;;;1.50;;
39322;SDS011;25036;53.638;10.134;2022-10-16T06:02:37;4.43;;;1.20;;
39322;SDS011;25036;53.638;10.134;2022-10-16T06:03:37;2.28;;;1.30;;
39322;SDS011;25036;53.638;10.134;2022-10-16T06:04:37;3.03;;;1.23;;
39322;SDS011;25036;53.638;10.134;2022-10-16T06:05:38;3.10;;;1.17;;
39322;SDS011;25036;53.638;10.134;2022-10-16T06:06:38;4.20;;;1.40;;
39322;SDS011;25036;53.638;10.134;2022-10-16T06:07:38;2.97;;;1.55;;
39322;SDS011;25036;53.638;10.134;2022-10-16T06:08:38;2.67;;;1.30;;
39322;SDS011;25036;53.638;10.134;2022-10-16T06:09:39;1.95;;;1.05;;